createdAt,value
2023-04-22T00:03:35.837Z,15.50
2023-04-22T00:06:04.516Z,10.30
2023-04-22T00:08:33.290Z,11.60
2023-04-22T00:11:01.769Z,12.20
2023-04-22T00:13:29.945Z,9.20
2023-04-22T00:15:58.810Z,9.90
2023-04-22T00:18:27.592Z,8.10
2023-04-22T00:20:55.766Z,9.10
2023-04-22T00:23:25.383Z,6.50
2023-04-22T00:25:55.126Z,9.00
2023-04-22T00:28:23.705Z,9.10
2023-04-22T00:30:53.121Z,10.80
2023-04-22T00:33:21.985Z,8.90
2023-04-22T00:35:50.143Z,7.50
2023-04-22T00:38:18.217Z,11.20
2023-04-22T00:40:47.441Z,5.80
2023-04-22T00:43:17.240Z,8.00
2023-04-22T00:45:45.606Z,7.70
2023-04-22T00:48:14.358Z,8.20
2023-04-22T00:50:42.985Z,11.60
2023-04-22T00:53:11.770Z,10.60
2023-04-22T00:55:42.157Z,7.40
2023-04-22T00:58:11.129Z,9.00
2023-04-22T01:00:40.426Z,9.90
2023-04-22T01:03:10.644Z,7.20
2023-04-22T01:05:42.366Z,9.70
2023-04-22T01:08:12.490Z,8.30
2023-04-22T01:10:42.550Z,6.90
2023-04-22T01:13:11.093Z,6.40
2023-04-22T01:15:39.653Z,6.50
2023-04-22T01:18:09.038Z,6.90
2023-04-22T01:20:37.782Z,7.40
2023-04-22T01:23:09.078Z,6.30
2023-04-22T01:25:37.665Z,6.10
2023-04-22T01:28:06.873Z,6.80
2023-04-22T01:30:35.966Z,6.00
2023-04-22T01:33:05.059Z,6.60
2023-04-22T01:35:33.583Z,7.90
2023-04-22T01:38:04.525Z,5.20
2023-04-22T01:40:34.120Z,7.20
2023-04-22T01:43:03.109Z,5.60
2023-04-22T01:45:31.639Z,12.00
2023-04-22T01:48:00.372Z,9.50
2023-04-22T01:50:29.910Z,5.70
2023-04-22T01:53:00.193Z,6.20
2023-04-22T01:55:29.795Z,9.30
2023-04-22T01:57:59.403Z,7.70
2023-04-22T02:00:28.207Z,9.00
2023-04-22T02:02:57.780Z,5.70
2023-04-22T02:05:27.496Z,10.00
2023-04-22T02:07:57.038Z,9.00
2023-04-22T02:10:25.865Z,8.90
2023-04-22T02:12:55.388Z,12.40
2023-04-22T02:15:24.227Z,7.60
2023-04-22T02:17:53.082Z,12.10
2023-04-22T02:20:21.913Z,7.20
2023-04-22T02:22:50.779Z,10.00
2023-04-22T02:25:21.187Z,10.00
2023-04-22T02:27:50.274Z,8.70
2023-04-22T02:30:18.540Z,8.10
2023-04-22T02:32:47.105Z,9.10
2023-04-22T02:35:16.144Z,9.00
2023-04-22T02:37:44.686Z,12.80
2023-04-22T02:40:12.981Z,12.20
2023-04-22T02:42:41.263Z,10.50
2023-04-22T02:45:11.364Z,9.70
2023-04-22T02:47:40.275Z,11.30
2023-04-22T02:50:10.417Z,10.40
2023-04-22T02:52:39.100Z,9.40
2023-04-22T02:55:08.820Z,10.70
2023-04-22T02:57:37.744Z,11.00
2023-04-22T03:00:07.402Z,8.50
2023-04-22T03:02:36.231Z,9.00
2023-04-22T03:05:05.200Z,11.70
2023-04-22T03:07:33.820Z,7.20
2023-04-22T03:10:04.431Z,10.20
2023-04-22T03:12:32.947Z,10.40
2023-04-22T03:15:01.522Z,10.80
2023-04-22T03:17:29.709Z,7.10
2023-04-22T03:19:58.342Z,8.40
2023-04-22T03:22:27.272Z,8.90
2023-04-22T03:24:56.476Z,8.90
2023-04-22T03:27:25.070Z,6.50
2023-04-22T03:29:53.344Z,10.00
2023-04-22T03:32:22.909Z,6.20
2023-04-22T03:34:52.315Z,10.00
2023-04-22T03:37:20.667Z,9.60
2023-04-22T03:39:49.303Z,11.10
2023-04-22T03:42:17.978Z,8.40
2023-04-22T03:44:46.069Z,9.90
2023-04-22T03:47:14.103Z,6.00
2023-04-22T03:49:43.513Z,7.30
2023-04-22T03:52:11.604Z,8.10
2023-04-22T03:54:40.390Z,8.90
2023-04-22T03:57:09.103Z,7.40
2023-04-22T03:59:38.193Z,7.70
2023-04-22T04:02:07.256Z,10.90
2023-04-22T04:04:36.209Z,10.90
2023-04-22T04:07:06.243Z,16.50
2023-04-22T04:09:35.383Z,8.20
2023-04-22T04:12:04.927Z,7.80
2023-04-22T04:14:33.617Z,8.70
2023-04-22T04:17:01.886Z,8.80
2023-04-22T04:19:31.117Z,8.70
2023-04-22T04:22:01.874Z,7.80
2023-04-22T04:24:31.090Z,8.10
2023-04-22T04:26:59.705Z,7.60
2023-04-22T04:29:28.033Z,6.20
2023-04-22T04:31:56.748Z,7.20
2023-04-22T04:34:25.038Z,4.40
2023-04-22T04:36:53.554Z,8.10
2023-04-22T04:39:21.939Z,7.20
2023-04-22T04:41:50.256Z,5.40
2023-04-22T04:44:19.421Z,6.20
2023-04-22T04:46:48.749Z,4.40
2023-04-22T04:49:16.984Z,4.30
2023-04-22T04:51:46.131Z,6.50
2023-04-22T04:54:15.473Z,6.00
2023-04-22T04:56:44.124Z,5.70
2023-04-22T04:59:12.393Z,5.00
2023-04-22T05:01:41.371Z,7.00
2023-04-22T05:04:11.240Z,6.00
2023-04-22T05:06:39.876Z,4.60
2023-04-22T05:09:09.121Z,4.70
2023-04-22T05:11:37.338Z,4.30
2023-04-22T05:14:06.326Z,7.00
2023-04-22T05:16:35.002Z,6.50
2023-04-22T05:19:04.247Z,4.10
2023-04-22T05:21:32.461Z,5.90
2023-04-22T05:24:01.342Z,5.20
2023-04-22T05:26:29.755Z,5.30
2023-04-22T05:28:58.023Z,4.10
2023-04-22T05:31:26.422Z,5.70
2023-04-22T05:33:54.576Z,4.90
2023-04-22T05:36:23.619Z,4.60
2023-04-22T05:38:53.196Z,6.10
2023-04-22T05:41:21.396Z,4.90
2023-04-22T05:43:50.472Z,3.60
2023-04-22T05:46:18.885Z,4.60
2023-04-22T05:48:47.019Z,2.50
2023-04-22T05:51:15.747Z,7.20
2023-04-22T05:53:43.968Z,5.50
2023-04-22T05:56:12.036Z,4.40
2023-04-22T05:58:40.600Z,5.90
2023-04-22T06:01:09.942Z,7.40
2023-04-22T06:03:38.856Z,7.00
2023-04-22T06:06:08.044Z,5.90
2023-04-22T06:08:36.270Z,6.30
2023-04-22T06:11:05.149Z,4.50
2023-04-22T06:13:33.803Z,5.60
2023-04-22T06:16:02.772Z,8.70
2023-04-22T06:18:31.161Z,10.20
2023-04-22T06:20:59.859Z,8.00
2023-04-22T06:23:28.240Z,7.00
2023-04-22T06:25:56.486Z,8.20
2023-04-22T06:28:24.902Z,10.10
2023-04-22T06:30:54.200Z,10.80
2023-04-22T06:33:22.905Z,10.60
2023-04-22T06:35:51.407Z,10.70
2023-04-22T06:38:20.144Z,15.00
2023-04-22T06:40:48.879Z,11.80
2023-04-22T06:43:17.345Z,15.70
2023-04-22T06:45:45.967Z,12.00
2023-04-22T06:48:14.672Z,11.60
2023-04-22T06:50:43.862Z,9.70
2023-04-22T06:53:12.333Z,10.60
2023-04-22T06:55:41.165Z,12.00
2023-04-22T06:58:10.583Z,15.60
2023-04-22T07:00:39.226Z,12.60
2023-04-22T07:03:07.501Z,12.30
2023-04-22T07:05:37.816Z,11.80
2023-04-22T07:08:06.819Z,11.60
2023-04-22T07:10:35.730Z,10.80
2023-04-22T07:13:04.041Z,10.70
2023-04-22T07:15:32.817Z,12.40
2023-04-22T07:18:01.398Z,10.90
2023-04-22T07:20:29.583Z,16.50
2023-04-22T07:22:58.311Z,10.00
2023-04-22T07:25:27.614Z,13.30
2023-04-22T07:27:56.755Z,17.70
2023-04-22T07:30:25.227Z,13.00
2023-04-22T07:32:54.049Z,15.10
2023-04-22T07:35:22.447Z,9.50
2023-04-22T07:37:51.523Z,11.30
2023-04-22T07:40:19.858Z,9.50
2023-04-22T07:42:48.015Z,6.10
2023-04-22T07:45:16.709Z,12.40
2023-04-22T07:47:44.792Z,16.70
2023-04-22T07:50:13.558Z,12.50
2023-04-22T07:52:41.661Z,7.30
2023-04-22T07:55:10.457Z,15.40
2023-04-22T07:57:39.146Z,15.70
2023-04-22T08:00:10.196Z,20.80
2023-04-22T08:02:39.545Z,17.30
2023-04-22T08:05:10.008Z,14.90
2023-04-22T08:07:38.176Z,15.50
2023-04-22T08:10:07.655Z,13.00
2023-04-22T08:12:36.328Z,13.50
2023-04-22T08:15:05.245Z,13.10
2023-04-22T08:17:33.545Z,13.30
2023-04-22T08:20:02.518Z,13.60
2023-04-22T08:22:31.320Z,13.70
2023-04-22T08:25:00.564Z,12.50
2023-04-22T08:27:30.418Z,7.50
2023-04-22T08:29:58.757Z,9.90
2023-04-22T08:32:27.163Z,9.60
2023-04-22T08:35:03.867Z,10.60
2023-04-22T08:37:34.729Z,8.60
2023-04-22T08:40:03.705Z,6.80
2023-04-22T08:42:31.906Z,6.00
2023-04-22T08:45:01.505Z,9.80
2023-04-22T08:47:32.387Z,12.80
2023-04-22T08:50:02.926Z,7.80
2023-04-22T08:52:31.946Z,9.20
2023-04-22T08:55:01.467Z,7.10
2023-04-22T08:57:31.649Z,7.30
2023-04-22T09:00:00.954Z,10.80
2023-04-22T09:02:32.632Z,9.60
2023-04-22T09:05:03.265Z,9.40
2023-04-22T09:07:33.734Z,10.00
2023-04-22T09:10:02.964Z,9.30
2023-04-22T09:12:31.783Z,7.00
2023-04-22T09:15:01.100Z,6.80
2023-04-22T09:17:37.023Z,7.70
2023-04-22T09:20:07.594Z,7.90
2023-04-22T09:22:48.681Z,7.80
2023-04-22T09:25:21.725Z,8.30
2023-04-22T09:27:56.032Z,11.50
2023-04-22T09:30:26.552Z,9.20
2023-04-22T09:32:57.667Z,5.90
2023-04-22T09:35:27.402Z,8.00
2023-04-22T09:37:56.660Z,10.50
2023-04-22T09:40:26.837Z,12.80
2023-04-22T09:42:58.437Z,11.20
2023-04-22T09:45:38.036Z,7.60
2023-04-22T09:48:13.383Z,5.90
2023-04-22T09:50:48.720Z,6.50
2023-04-22T09:53:19.678Z,12.20
2023-04-22T09:55:55.377Z,8.30
2023-04-22T09:58:24.105Z,15.10
2023-04-22T10:00:55.274Z,7.20
2023-04-22T10:03:26.027Z,12.40
2023-04-22T10:05:54.986Z,8.70
2023-04-22T10:08:26.837Z,8.30
2023-04-22T10:10:56.027Z,13.50
2023-04-22T10:13:25.274Z,8.70
2023-04-22T10:15:56.264Z,10.40
2023-04-22T10:18:27.479Z,9.50
2023-04-22T10:20:59.139Z,12.10
2023-04-22T10:23:32.935Z,7.60
2023-04-22T10:26:01.850Z,7.60
2023-04-22T10:28:30.543Z,12.50
2023-04-22T10:31:06.267Z,7.80
2023-04-22T10:33:36.536Z,8.00
2023-04-22T10:36:20.753Z,8.80
2023-04-22T10:38:58.344Z,8.50
2023-04-22T10:41:35.015Z,11.40
2023-04-22T10:44:14.079Z,6.90
2023-04-22T10:47:00.854Z,11.50
2023-04-22T10:49:31.459Z,10.50
2023-04-22T10:52:01.142Z,8.30
2023-04-22T10:54:32.639Z,9.20
2023-04-22T10:57:15.480Z,13.40
2023-04-22T10:59:50.520Z,9.50
2023-04-22T11:02:20.387Z,9.80
2023-04-22T11:04:50.989Z,10.30
2023-04-22T11:07:23.009Z,10.00
2023-04-22T11:10:10.386Z,13.30
2023-04-22T11:12:44.476Z,13.90
2023-04-22T11:15:18.600Z,19.70
2023-04-22T11:17:52.504Z,7.80
2023-04-22T11:20:21.701Z,8.90
2023-04-22T11:22:55.479Z,8.70
2023-04-22T11:25:26.454Z,8.60
2023-04-22T11:27:54.744Z,9.90
2023-04-22T11:30:25.373Z,8.80
2023-04-22T11:32:57.600Z,12.90
2023-04-22T11:35:29.071Z,7.40
2023-04-22T11:37:58.973Z,9.50
2023-04-22T11:40:31.650Z,12.70
2023-04-22T11:43:03.461Z,10.70
2023-04-22T11:45:34.229Z,12.60
2023-04-22T11:48:06.515Z,10.90
2023-04-22T11:50:39.143Z,12.40
2023-04-22T11:53:20.022Z,11.00
2023-04-22T11:55:51.402Z,13.90
2023-04-22T11:58:25.633Z,8.00
2023-04-22T12:00:55.888Z,9.50
2023-04-22T12:03:32.369Z,10.60
2023-04-22T12:06:04.531Z,14.50
2023-04-22T12:08:38.677Z,6.20
2023-04-22T12:11:10.401Z,8.70
2023-04-22T12:13:44.343Z,12.30
2023-04-22T12:16:16.434Z,10.20
2023-04-22T12:18:50.235Z,11.10
2023-04-22T12:21:26.501Z,9.90
2023-04-22T12:24:02.662Z,8.60
2023-04-22T12:26:31.149Z,10.60
2023-04-22T12:29:01.154Z,9.80
2023-04-22T12:31:29.986Z,7.70
2023-04-22T12:33:59.734Z,11.30
2023-04-22T12:36:28.624Z,8.90
2023-04-22T12:38:56.866Z,8.90
2023-04-22T12:41:25.843Z,10.80
2023-04-22T12:43:54.660Z,10.30
2023-04-22T12:46:22.824Z,14.20
2023-04-22T12:48:51.396Z,12.40
2023-04-22T12:51:19.870Z,9.30
2023-04-22T12:53:48.866Z,8.40
2023-04-22T12:56:17.817Z,8.50
2023-04-22T12:58:47.783Z,11.00
2023-04-22T13:01:16.375Z,13.00
2023-04-22T13:03:45.261Z,8.90
2023-04-22T13:06:15.050Z,11.30
2023-04-22T13:08:43.764Z,10.70
2023-04-22T13:11:12.477Z,9.30
2023-04-22T13:13:41.842Z,9.90
2023-04-22T13:16:11.199Z,9.90
2023-04-22T13:18:39.565Z,10.10
2023-04-22T13:21:08.654Z,11.30
2023-04-22T13:23:36.971Z,9.30
2023-04-22T13:26:06.271Z,8.10
2023-04-22T13:28:34.890Z,7.80
2023-04-22T13:31:03.517Z,10.70
2023-04-22T13:33:33.017Z,7.80
2023-04-22T13:36:02.215Z,8.80
2023-04-22T13:38:30.678Z,7.60
2023-04-22T13:41:01.189Z,8.70
2023-04-22T13:43:31.658Z,10.30
2023-04-22T13:46:00.595Z,7.10
2023-04-22T13:48:29.457Z,7.30
2023-04-22T13:50:58.451Z,9.70
2023-04-22T13:53:27.494Z,10.70
2023-04-22T13:55:55.667Z,9.80
2023-04-22T13:58:23.800Z,8.80
2023-04-22T14:00:52.666Z,8.40
2023-04-22T14:03:21.621Z,11.00
2023-04-22T14:05:50.491Z,9.60
2023-04-22T14:08:19.165Z,11.70
2023-04-22T14:10:48.593Z,11.20
2023-04-22T14:13:18.140Z,9.80
2023-04-22T14:15:47.713Z,16.90
2023-04-22T14:18:18.004Z,13.50
2023-04-22T14:20:46.175Z,17.00
2023-04-22T14:23:14.357Z,15.80
2023-04-22T14:25:44.126Z,12.10
2023-04-22T14:28:14.101Z,16.50
2023-04-22T14:30:43.018Z,14.20
2023-04-22T14:33:11.824Z,13.70
2023-04-22T14:35:39.999Z,15.70
2023-04-22T14:38:11.298Z,15.70
2023-04-22T14:40:40.076Z,14.20
2023-04-22T14:43:08.784Z,13.20
2023-04-22T14:45:37.039Z,13.40
2023-04-22T14:48:05.317Z,17.30
2023-04-22T14:50:33.674Z,14.20
2023-04-22T14:53:01.983Z,14.90
2023-04-22T14:55:30.096Z,11.10
2023-04-22T14:57:58.842Z,19.80
2023-04-22T15:00:28.539Z,14.50
2023-04-22T15:02:58.343Z,22.20
2023-04-22T15:05:27.055Z,11.20
2023-04-22T15:07:55.773Z,15.20
2023-04-22T15:10:25.421Z,13.20
2023-04-22T15:12:54.535Z,12.90
2023-04-22T15:15:23.451Z,16.50
2023-04-22T15:17:52.223Z,18.20
2023-04-22T15:20:21.503Z,18.20
2023-04-22T15:22:50.335Z,13.90
2023-04-22T15:25:19.364Z,16.80
2023-04-22T15:27:48.708Z,13.10
2023-04-22T15:30:17.015Z,11.30
2023-04-22T15:32:45.347Z,12.30
2023-04-22T15:35:13.474Z,12.80
2023-04-22T15:37:42.509Z,11.50
2023-04-22T15:40:10.813Z,9.80
2023-04-22T15:42:39.217Z,9.80
2023-04-22T15:45:08.857Z,12.00
2023-04-22T15:47:39.846Z,16.10
2023-04-22T15:50:10.153Z,11.40
2023-04-22T15:52:39.229Z,11.20
2023-04-22T15:55:08.241Z,15.40
2023-04-22T15:57:37.592Z,14.60
2023-04-22T16:00:11.851Z,16.50
2023-04-22T16:02:43.955Z,13.70
2023-04-22T16:05:12.366Z,11.50
2023-04-22T16:07:40.932Z,14.60
2023-04-22T16:10:10.167Z,10.60
2023-04-22T16:12:38.687Z,13.60
2023-04-22T16:15:08.192Z,13.40
2023-04-22T16:17:38.344Z,15.60
2023-04-22T16:20:08.454Z,10.70
2023-04-22T16:22:36.784Z,14.50
2023-04-22T16:25:06.051Z,14.70
2023-04-22T16:27:34.303Z,17.90
2023-04-22T16:30:02.573Z,14.40
2023-04-22T16:32:31.566Z,14.10
2023-04-22T16:35:00.102Z,18.80
2023-04-22T16:37:29.525Z,15.50
2023-04-22T16:39:58.157Z,18.90
2023-04-22T16:42:27.002Z,14.00
2023-04-22T16:44:55.686Z,14.90
2023-04-22T16:47:24.890Z,11.00
2023-04-22T16:49:53.580Z,13.20
2023-04-22T16:52:22.726Z,13.90
2023-04-22T16:54:51.199Z,17.10
2023-04-22T16:57:19.959Z,13.70
2023-04-22T16:59:48.845Z,15.20
2023-04-22T17:02:17.657Z,13.00
2023-04-22T17:04:45.997Z,17.70
2023-04-22T17:07:14.781Z,15.00
2023-04-22T17:09:43.506Z,16.80
2023-04-22T17:12:13.055Z,15.10
2023-04-22T17:14:41.219Z,15.70
2023-04-22T17:17:09.806Z,16.50
2023-04-22T17:19:38.194Z,15.50
2023-04-22T17:22:07.990Z,21.50
2023-04-22T17:24:36.671Z,16.40
2023-04-22T17:27:06.107Z,16.40
2023-04-22T17:29:34.801Z,17.20
2023-04-22T17:32:03.055Z,13.50
2023-04-22T17:34:31.788Z,19.70
2023-04-22T17:36:59.955Z,14.80
2023-04-22T17:39:28.214Z,12.60
2023-04-22T17:41:56.634Z,12.60
2023-04-22T17:44:25.726Z,18.10
2023-04-22T17:46:54.447Z,14.60
2023-04-22T17:49:22.791Z,21.30
2023-04-22T17:51:52.583Z,15.70
2023-04-22T17:54:21.676Z,15.10
2023-04-22T17:56:52.499Z,18.20
2023-04-22T17:59:22.163Z,15.30
2023-04-22T18:01:52.340Z,16.00
2023-04-22T18:04:20.987Z,15.40
2023-04-22T18:06:49.262Z,14.60
2023-04-22T18:09:18.020Z,14.80
2023-04-22T18:11:46.924Z,14.20
2023-04-22T18:14:15.862Z,14.80
2023-04-22T18:16:44.020Z,13.70
2023-04-22T18:19:12.110Z,12.40
2023-04-22T18:21:46.595Z,15.60
2023-04-22T18:24:22.305Z,17.40
2023-04-22T18:26:50.538Z,17.80
2023-04-22T18:29:19.372Z,16.10
2023-04-22T18:31:48.794Z,17.00
2023-04-22T18:34:18.231Z,11.30
2023-04-22T18:36:46.940Z,18.00
2023-04-22T18:39:15.159Z,13.90
2023-04-22T18:41:43.524Z,14.00
2023-04-22T18:44:12.134Z,16.30
2023-04-22T18:46:41.848Z,16.00
2023-04-22T18:49:10.263Z,16.50
2023-04-22T18:51:39.943Z,21.10
2023-04-22T18:54:10.603Z,17.60
2023-04-22T18:56:40.123Z,16.20
2023-04-22T18:59:08.908Z,15.80
2023-04-22T19:01:38.033Z,16.70
2023-04-22T19:04:06.283Z,14.90
2023-04-22T19:06:35.175Z,17.70
2023-04-22T19:09:04.549Z,16.20
2023-04-22T19:11:33.435Z,18.30
2023-04-22T19:14:02.111Z,21.00
2023-04-22T19:16:30.740Z,15.90
2023-04-22T19:18:59.677Z,16.80
2023-04-22T19:21:27.946Z,15.40
2023-04-22T19:23:56.331Z,17.70
2023-04-22T19:26:25.383Z,20.30
2023-04-22T19:28:54.529Z,20.70
2023-04-22T19:31:23.032Z,18.90
2023-04-22T19:33:52.941Z,20.00
2023-04-22T19:36:21.105Z,19.10
2023-04-22T19:38:50.274Z,20.50
2023-04-22T19:41:18.512Z,17.30
2023-04-22T19:43:47.707Z,23.30
2023-04-22T19:46:16.153Z,20.10
2023-04-22T19:48:45.046Z,21.10
2023-04-22T19:51:13.867Z,21.40
2023-04-22T19:53:43.638Z,29.60
2023-04-22T19:56:13.019Z,23.60
2023-04-22T19:58:42.786Z,21.50
2023-04-22T20:01:12.193Z,20.90
2023-04-22T20:03:41.262Z,23.40
2023-04-22T20:06:12.440Z,22.30
2023-04-22T20:08:42.607Z,21.20
2023-04-22T20:11:11.637Z,24.10
2023-04-22T20:13:41.254Z,25.50
2023-04-22T20:16:09.890Z,21.60
2023-04-22T20:18:38.480Z,27.70
2023-04-22T20:21:08.881Z,23.90
2023-04-22T20:23:39.713Z,24.50
2023-04-22T20:26:08.513Z,20.00
2023-04-22T20:28:43.127Z,23.50
2023-04-22T20:31:13.651Z,21.30
2023-04-22T20:33:42.024Z,18.40
2023-04-22T20:36:13.873Z,23.50
2023-04-22T20:38:43.220Z,35.30
2023-04-22T20:41:11.527Z,19.60
2023-04-22T20:43:41.600Z,23.00
2023-04-22T20:46:11.195Z,20.70
2023-04-22T20:48:40.463Z,26.60
2023-04-22T20:51:09.134Z,20.50
2023-04-22T20:53:38.010Z,28.80
2023-04-22T20:56:06.897Z,23.40
2023-04-22T20:58:35.819Z,20.00
2023-04-22T21:01:04.588Z,30.50
2023-04-22T21:03:34.045Z,24.80
2023-04-22T21:06:03.211Z,27.40
2023-04-22T21:08:35.558Z,25.10
2023-04-22T21:11:04.105Z,28.10
2023-04-22T21:13:32.969Z,24.20
2023-04-22T21:16:07.713Z,15.40
2023-04-22T21:18:39.812Z,28.70
2023-04-22T21:21:10.023Z,23.20
2023-04-22T21:23:41.303Z,25.50
2023-04-22T21:26:11.044Z,25.70
2023-04-22T21:28:40.665Z,21.30
2023-04-22T21:31:09.329Z,18.50
2023-04-22T21:33:38.162Z,21.60
2023-04-22T21:36:07.078Z,18.80
2023-04-22T21:38:35.355Z,21.30
2023-04-22T21:41:04.507Z,23.60
2023-04-22T21:43:33.617Z,23.70
2023-04-22T21:46:02.552Z,21.70
2023-04-22T21:48:31.516Z,20.40
2023-04-22T21:50:59.978Z,28.10
2023-04-22T21:53:29.175Z,19.70
2023-04-22T21:55:58.240Z,29.30
2023-04-22T21:58:27.316Z,22.00
2023-04-22T22:00:55.922Z,23.00
2023-04-22T22:03:25.691Z,27.30
2023-04-22T22:05:54.194Z,21.20
2023-04-22T22:08:23.171Z,26.60
2023-04-22T22:10:52.485Z,25.00
2023-04-22T22:13:20.546Z,23.80
2023-04-22T22:15:49.121Z,26.20
2023-04-22T22:18:19.043Z,27.60
2023-04-22T22:20:47.540Z,20.80
2023-04-22T22:23:19.544Z,21.10
2023-04-22T22:25:49.125Z,27.10
2023-04-22T22:28:18.318Z,22.70
2023-04-22T22:30:46.937Z,21.00
2023-04-22T22:33:15.297Z,22.60
2023-04-22T22:35:44.126Z,20.40
2023-04-22T22:38:12.802Z,22.20
2023-04-22T22:40:42.267Z,21.10
2023-04-22T22:43:11.326Z,19.60
2023-04-22T22:45:40.589Z,21.90
2023-04-22T22:48:09.600Z,23.50
2023-04-22T22:50:38.357Z,18.20
2023-04-22T22:53:07.213Z,20.20
2023-04-22T22:55:36.201Z,18.20
2023-04-22T22:58:04.929Z,17.30
2023-04-22T23:00:33.618Z,20.40
2023-04-22T23:03:03.848Z,14.80
2023-04-22T23:05:32.472Z,18.40
2023-04-22T23:08:00.858Z,16.80
2023-04-22T23:10:29.389Z,18.30
2023-04-22T23:12:58.876Z,17.10
2023-04-22T23:15:27.618Z,18.40
2023-04-22T23:17:56.982Z,14.40
2023-04-22T23:20:26.154Z,14.00
2023-04-22T23:22:54.921Z,16.10
2023-04-22T23:25:24.092Z,23.50
2023-04-22T23:27:53.059Z,16.40
2023-04-22T23:30:22.086Z,16.20
2023-04-22T23:32:52.400Z,16.50
2023-04-22T23:35:22.670Z,19.00
2023-04-22T23:37:52.763Z,22.10
2023-04-22T23:40:20.942Z,18.60
2023-04-22T23:42:49.742Z,19.30
2023-04-22T23:45:19.279Z,17.00
2023-04-22T23:47:48.331Z,18.10
2023-04-22T23:50:17.788Z,19.60
2023-04-22T23:52:46.632Z,19.80
2023-04-22T23:55:15.770Z,17.20
2023-04-22T23:57:44.256Z,15.90
